首页
METAR-TAF:

METAR-TAF

机场 :

Cape May County Airport

Wildwood, 新泽西州, 美国

纬度: 39-01N, 经度: 074-55W, 海拔: 7米

当前天气观测

该预报发布于28分钟前的01:56 UTC
风速6节,风向西
温度 10°C
湿度 62%
气压 1019 hPa
能見度: 16.1公里
阴天层高于6500英尺

METAR: KWWD 070156Z AUTO 26006KT 10SM OVC065 10/03 A3009 RMK AO2 SLP191 T01000028

时间: 21:24 (02:24 UTC)


TAF: 丢失

超过4000个机场的气象观测和天气预报(METAR&TAF报告)。

可查询的气象台以黄色和红色小点在地图上表示。

将鼠标移到小点上方,可查看气象台名称。

然后点击查看天气观测和预报。

如需切换地图:点击带黑十字的绿色按钮放大地图;点击带横线的绿色按钮缩小地图;或者点击绿色箭头查看邻近地区的地图。


METAR-TAF: